Time;durP1;ratioP1;P1;durP2;ratioP2;P2;SDS_P1;SDS_P2;PMS_P1;PMS_P2;Temp;Humidity;BMP_temperature;BMP_pressure;BME280_temperature;BME280_humidity;BME280_pressure;Samples;Min_cycle;Max_cycle;Signal;HPM_P1;HPM_P2
2022/10/06 00:00:18;;;;;;;;;2.00;2.00;;;;;16.41;61.58;101893.66;5067013;28;45338;-58
2022/10/06 00:02:45;;;;;;;;;2.00;1.00;;;;;16.41;60.44;101893.66;5055247;28;45362;-58
2022/10/06 00:05:10;;;;;;;;;4.67;4.00;;;;;16.40;60.97;101906.06;5060553;28;45422;-58
2022/10/06 00:07:36;;;;;;;;;2.33;1.33;;;;;16.44;60.87;101906.81;5025415;28;45644;-58
2022/10/06 00:10:02;;;;;;;;;1.00;1.00;;;;;16.42;60.73;101911.34;5036302;28;45579;-58
2022/10/06 00:12:27;;;;;;;;;1.00;1.00;;;;;16.35;61.07;101913.34;5042168;28;46329;-58
2022/10/06 00:14:52;;;;;;;;;3.00;1.00;;;;;16.36;61.09;101925.69;5056927;28;45516;-58
2022/10/06 00:17:18;;;;;;;;;2.67;1.33;;;;;16.31;60.95;101927.69;5056733;28;45437;-58
2022/10/06 00:19:43;;;;;;;;;1.33;1.33;;;;;16.24;61.12;101936.78;5055802;28;45483;-58
2022/10/06 00:22:08;;;;;;;;;1.00;1.00;;;;;16.23;61.44;101938.59;5056207;28;45449;-57
2022/10/06 00:24:34;;;;;;;;;1.67;1.33;;;;;16.26;61.71;101934.94;5055930;28;58069;-59
2022/10/06 00:26:59;;;;;;;;;0.33;0.00;;;;;16.21;60.94;101939.56;5076956;28;45354;-58
2022/10/06 00:29:25;;;;;;;;;2.33;1.00;;;;;16.23;61.55;101948.34;5076594;28;45418;-58
2022/10/06 00:31:50;;;;;;;;;1.67;1.33;;;;;16.18;61.18;101955.59;5075830;28;45838;-58
2022/10/06 00:34:15;;;;;;;;;3.33;1.33;;;;;16.07;61.77;101964.81;5074390;28;45472;-57
2022/10/06 00:36:41;;;;;;;;;1.00;1.00;;;;;16.10;61.93;101972.66;5075546;28;52946;-56
2022/10/06 00:39:06;;;;;;;;;1.00;1.00;;;;;16.11;62.24;101970.88;5076610;28;45524;-58
2022/10/06 00:41:32;;;;;;;;;1.00;1.00;;;;;16.16;61.85;101981.34;5057339;28;53243;-57
2022/10/06 00:43:57;;;;;;;;;4.33;1.00;;;;;16.13;61.99;101983.16;5051008;28;45398;-58
2022/10/06 00:46:32;;;;;;;;;2.00;1.00;;;;;16.08;61.55;101977.16;5056081;28;45441;-58
2022/10/06 00:49:03;;;;;;;;;3.00;2.00;;;;;16.03;61.43;101980.91;5056130;28;45459;-58
2022/10/06 00:51:31;;;;;;;;;1.67;0.67;;;;;16.00;61.02;101989.84;5055530;28;45550;-58
2022/10/06 00:53:57;;;;;;;;;1.67;1.00;;;;;15.99;61.89;101982.81;5049234;28;45555;-57
2022/10/06 00:56:23;;;;;;;;;2.00;1.00;;;;;15.99;61.05;101979.28;5054898;28;45347;-59
2022/10/06 00:58:49;;;;;;;;;2.00;1.00;;;;;15.96;61.39;101977.63;5051929;28;45359;-56
2022/10/06 01:01:15;;;;;;;;;2.00;0.67;;;;;15.92;61.21;101980.44;5055475;28;45326;-58
2022/10/06 01:03:49;;;;;;;;;1.00;1.00;;;;;15.92;60.90;101986.59;5049901;28;45374;-58
2022/10/06 01:06:15;;;;;;;;;3.67;3.67;;;;;15.89;61.78;101982.25;5039383;28;45418;-58
2022/10/06 01:08:40;;;;;;;;;2.00;1.00;;;;;15.87;61.46;101984.09;5053699;28;45356;-57
2022/10/06 01:11:12;;;;;;;;;4.33;2.00;;;;;15.85;60.51;101985.97;5055857;28;45453;-57
2022/10/06 01:13:39;;;;;;;;;1.33;1.33;;;;;15.82;61.65;101993.13;5055361;28;45371;-57
2022/10/06 01:16:11;;;;;;;;;3.33;1.67;;;;;15.81;61.45;101996.72;5075642;28;45449;-58
2022/10/06 01:18:39;;;;;;;;;1.00;1.00;;;;;15.76;61.92;101996.88;5056908;28;45473;-58
2022/10/06 01:21:17;;;;;;;;;3.67;2.00;;;;;15.77;61.27;101992.44;5054961;28;45395;-58
2022/10/06 01:23:43;;;;;;;;;1.00;1.00;;;;;15.78;61.62;101994.19;5055190;28;45445;-59
2022/10/06 01:26:11;;;;;;;;;1.33;1.33;;;;;15.80;61.71;102009.13;5067917;28;45378;-58
2022/10/06 01:28:38;;;;;;;;;2.00;2.00;;;;;15.74;61.09;102005.81;5076063;28;45516;-58
2022/10/06 01:31:03;;;;;;;;;3.00;2.00;;;;;15.66;61.13;102004.25;5075686;28;45453;-58
2022/10/06 01:33:29;;;;;;;;;1.33;0.00;;;;;15.64;61.05;102008.75;5052534;28;45375;-56
2022/10/06 01:35:54;;;;;;;;;2.67;2.00;;;;;15.64;61.50;102014.06;5072106;28;45446;-58
2022/10/06 01:38:20;;;;;;;;;2.33;1.00;;;;;15.61;60.86;102013.31;5079352;28;45437;-58
2022/10/06 01:40:47;;;;;;;;;1.00;1.00;;;;;15.66;61.32;102019.28;5058926;28;46073;-58
2022/10/06 01:43:12;;;;;;;;;2.00;1.00;;;;;15.64;61.33;102016.69;5055324;28;45627;-58
2022/10/06 01:45:38;;;;;;;;;3.67;2.00;;;;;15.65;60.97;102021.06;5074780;28;45492;-58
2022/10/06 01:48:04;;;;;;;;;3.00;1.33;;;;;15.63;60.19;102011.44;5071328;28;45531;-57
2022/10/06 01:50:30;;;;;;;;;2.00;1.00;;;;;15.60;61.05;102019.50;5058645;28;45506;-58
2022/10/06 01:52:56;;;;;;;;;2.00;2.00;;;;;15.58;60.55;102018.69;5040653;28;45415;-58
2022/10/06 01:55:22;;;;;;;;;2.00;2.00;;;;;15.53;60.43;102017.97;5023577;28;45486;-58
2022/10/06 01:57:47;;;;;;;;;0.67;0.67;;;;;15.50;60.53;102018.97;5055324;28;45541;-59
2022/10/06 02:00:13;;;;;;;;;2.00;1.00;;;;;15.45;60.50;102024.41;5040394;28;46281;-59
2022/10/06 02:02:39;;;;;;;;;5.00;2.67;;;;;15.46;60.74;102012.00;5057808;28;45459;-58
2022/10/06 02:05:05;;;;;;;;;6.67;2.00;;;;;15.48;60.99;102025.22;5065360;28;45462;-58
2022/10/06 02:07:30;;;;;;;;;1.00;1.00;;;;;15.48;59.87;102033.19;5078855;28;45359;-58
2022/10/06 02:09:56;;;;;;;;;1.00;1.00;;;;;15.43;60.78;102025.38;5078765;28;45916;-58
2022/10/06 02:12:21;;;;;;;;;2.67;2.00;;;;;15.42;59.89;102029.81;5062134;28;45548;-58
2022/10/06 02:14:47;;;;;;;;;1.00;1.00;;;;;15.40;59.51;102031.66;5054144;28;45393;-58
2022/10/06 02:17:12;;;;;;;;;2.33;1.00;;;;;15.43;60.54;102033.31;5058355;28;45648;-58
2022/10/06 02:19:38;;;;;;;;;3.00;2.00;;;;;15.43;60.49;102038.63;5058115;28;45521;-57
2022/10/06 02:22:03;;;;;;;;;1.67;1.67;;;;;15.36;60.07;102030.00;5047369;28;45433;-58
2022/10/06 02:24:29;;;;;;;;;4.67;2.00;;;;;15.35;60.72;102030.06;5038160;28;45427;-57
2022/10/06 02:26:54;;;;;;;;;2.67;1.33;;;;;15.31;60.12;102039.00;5019518;28;45697;-57
2022/10/06 02:29:20;;;;;;;;;5.00;3.00;;;;;15.32;59.93;102048.72;5037378;28;45455;-58
2022/10/06 02:31:46;;;;;;;;;4.67;3.67;;;;;15.29;60.85;102046.16;5036712;28;45986;-58
2022/10/06 02:34:11;;;;;;;;;1.33;1.33;;;;;15.21;60.14;102046.41;5034129;28;45549;-57
2022/10/06 02:36:36;;;;;;;;;2.00;2.00;;;;;15.28;60.00;102047.06;5038011;28;45511;-58
2022/10/06 02:39:02;;;;;;;;;2.33;1.00;;;;;15.22;61.05;102059.59;5037284;28;45482;-58
2022/10/06 02:41:28;;;;;;;;;3.00;2.00;;;;;15.12;61.00;102055.50;5037750;28;45761;-58
2022/10/06 02:43:54;;;;;;;;;3.00;3.00;;;;;15.14;60.34;102055.47;5038368;28;47636;-58
2022/10/06 02:46:19;;;;;;;;;4.33;2.33;;;;;15.18;60.54;102054.47;5057600;28;45584;-58
2022/10/06 02:48:45;;;;;;;;;4.00;2.00;;;;;15.17;60.18;102055.34;5036503;28;46376;-58
2022/10/06 02:51:15;;;;;;;;;3.00;1.67;;;;;15.15;60.73;102068.66;5037844;28;45447;-58
2022/10/06 02:53:42;;;;;;;;;1.00;1.00;;;;;15.13;60.78;102069.63;5036905;28;45429;-58
2022/10/06 02:56:20;;;;;;;;;2.33;1.33;;;;;15.06;60.84;102061.00;5037664;28;45372;-57
2022/10/06 02:58:48;;;;;;;;;3.00;2.00;;;;;15.11;60.17;102061.72;5037497;28;45541;-58
2022/10/06 03:01:20;;;;;;;;;2.33;1.33;;;;;15.15;60.79;102063.38;5037542;28;45462;-58
2022/10/06 03:03:46;;;;;;;;;2.67;1.33;;;;;15.11;60.30;102061.72;5037274;28;45368;-57
2022/10/06 03:06:20;;;;;;;;;1.00;1.00;;;;;15.12;60.42;102071.38;5057628;28;45399;-58
2022/10/06 03:09:12;;;;;;;;;2.67;2.00;;;;;15.10;60.02;102075.91;5038370;28;45373;-58
2022/10/06 03:11:40;;;;;;;;;2.33;2.33;;;;;15.05;60.78;102077.81;5039222;28;45364;-58
2022/10/06 03:14:06;;;;;;;;;2.00;2.00;;;;;15.05;60.11;102079.59;5057853;28;45433;-57
2022/10/06 03:16:36;;;;;;;;;3.00;1.33;;;;;14.99;60.84;102077.97;5057662;28;45416;-58
2022/10/06 03:19:01;;;;;;;;;3.33;1.00;;;;;14.99;60.81;102077.97;5057558;28;47041;-58
2022/10/06 03:21:35;;;;;;;;;2.67;1.33;;;;;14.95;60.83;102081.66;5052994;28;45522;-57
2022/10/06 03:24:01;;;;;;;;;1.00;1.00;;;;;14.95;60.59;102086.94;5037909;28;45416;-57
2022/10/06 03:26:30;;;;;;;;;4.67;3.00;;;;;14.97;60.26;102086.00;5018775;28;45522;-58
2022/10/06 03:28:55;;;;;;;;;1.00;1.00;;;;;15.00;60.95;102088.53;5036355;28;45436;-59
2022/10/06 03:31:21;;;;;;;;;2.67;2.00;;;;;14.97;60.35;102099.22;5043281;28;45514;-58
2022/10/06 03:33:47;;;;;;;;;2.00;2.00;;;;;14.95;60.82;102092.25;5051119;28;45383;-58
2022/10/06 03:36:18;;;;;;;;;3.00;1.00;;;;;14.93;60.11;102096.72;5036613;28;45498;-58
2022/10/06 03:38:43;;;;;;;;;1.00;1.00;;;;;14.92;60.97;102102.94;5036825;28;45470;-58
2022/10/06 03:41:10;;;;;;;;;3.67;2.00;;;;;14.97;60.52;102103.66;5020517;28;46264;-58
2022/10/06 03:43:36;;;;;;;;;5.00;3.00;;;;;14.98;60.52;102108.03;5040479;28;45506;-57
2022/10/06 03:46:03;;;;;;;;;4.67;2.67;;;;;15.02;60.11;102115.00;5036683;28;45578;-58
2022/10/06 03:48:32;;;;;;;;;1.00;1.00;;;;;14.98;59.77;102121.28;5035732;28;45544;-58
2022/10/06 03:51:05;;;;;;;;;3.00;2.00;;;;;14.92;60.14;102130.28;5039588;28;45514;-58
2022/10/06 03:53:32;;;;;;;;;4.00;3.00;;;;;14.93;60.72;102132.00;5043814;28;45409;-58
2022/10/06 03:56:07;;;;;;;;;4.00;2.00;;;;;14.98;60.51;102146.00;5036905;28;45470;-58
2022/10/06 03:58:35;;;;;;;;;5.00;2.00;;;;;14.93;60.13;102144.41;5034243;28;45414;-58
2022/10/06 04:01:13;;;;;;;;;3.00;3.00;;;;;14.97;59.86;102141.63;5021560;28;45329;-58
2022/10/06 04:03:39;;;;;;;;;2.00;1.67;;;;;14.96;60.01;102146.94;5035396;28;45685;-57
2022/10/06 04:06:06;;;;;;;;;1.00;1.00;;;;;14.97;60.04;102148.72;5036664;28;45390;-58
2022/10/06 04:08:33;;;;;;;;;3.00;1.00;;;;;14.91;60.37;102147.09;5036474;28;45461;-57
2022/10/06 04:11:06;;;;;;;;;3.00;2.67;;;;;14.86;60.37;102153.47;5033969;28;45430;-58
2022/10/06 04:13:32;;;;;;;;;6.33;2.33;;;;;14.93;60.70;102155.00;5056649;28;45441;-58
2022/10/06 04:15:57;;;;;;;;;4.67;3.00;;;;;14.94;60.25;102156.75;5046629;28;45471;-58
2022/10/06 04:18:23;;;;;;;;;2.33;2.00;;;;;14.95;59.49;102153.19;5035441;28;46184;-57
2022/10/06 04:20:48;;;;;;;;;4.00;2.00;;;;;14.96;60.09;102166.41;5036718;28;46800;-57
2022/10/06 04:23:15;;;;;;;;;4.33;2.33;;;;;14.95;59.35;102156.69;5074192;28;52218;-58
2022/10/06 04:25:40;;;;;;;;;3.00;2.00;;;;;14.85;60.24;102164.94;5057206;28;45454;-58
2022/10/06 04:28:06;;;;;;;;;2.67;1.00;;;;;14.80;59.98;102165.97;5055664;28;46251;-58
2022/10/06 04:30:31;;;;;;;;;2.67;2.00;;;;;14.82;59.96;102167.69;5049775;28;45475;-58
2022/10/06 04:32:56;;;;;;;;;2.67;1.00;;;;;14.81;60.18;102164.16;5073452;28;45670;-59
2022/10/06 04:35:22;;;;;;;;;1.67;1.67;;;;;14.78;59.93;102170.41;5076330;28;45579;-58
2022/10/06 04:37:48;;;;;;;;;3.00;2.00;;;;;14.85;59.31;102175.53;5058025;28;45669;-57
2022/10/06 04:40:14;;;;;;;;;3.33;2.00;;;;;14.86;59.93;102183.44;5076349;28;45446;-58
2022/10/06 04:42:40;;;;;;;;;3.33;2.00;;;;;14.85;59.56;102181.69;5075603;28;45406;-58
2022/10/06 04:45:06;;;;;;;;;5.00;4.00;;;;;14.75;59.82;102183.75;5067437;28;45548;-58
2022/10/06 04:47:32;;;;;;;;;1.67;1.00;;;;;14.66;59.91;102176.03;5055858;28;46278;-58
2022/10/06 04:49:57;;;;;;;;;2.33;2.00;;;;;14.71;59.43;102189.16;5054926;28;45370;-58
2022/10/06 04:52:22;;;;;;;;;6.00;2.00;;;;;14.73;60.09;102182.91;5050778;28;45522;-58
2022/10/06 04:54:48;;;;;;;;;5.33;2.33;;;;;14.72;60.08;102175.00;5056277;28;45645;-58
2022/10/06 04:57:13;;;;;;;;;4.67;2.00;;;;;14.71;59.77;102189.16;5055550;28;59747;-57
2022/10/06 05:02:23;;;;;;;;;3.67;3.33;;;;;14.77;60.27;102184.56;5061344;28;45328;-57
2022/10/06 05:04:48;;;;;;;;;2.67;2.67;;;;;14.77;59.77;102189.00;5058064;28;45475;-58
2022/10/06 05:07:14;;;;;;;;;4.33;2.33;;;;;14.74;59.53;102197.88;5057407;28;47672;-58
2022/10/06 05:09:39;;;;;;;;;2.00;2.00;;;;;14.76;59.74;102193.41;5069469;28;45532;-56
2022/10/06 05:12:05;;;;;;;;;3.00;3.00;;;;;14.74;60.36;102191.72;5054219;28;45489;-57
2022/10/06 05:14:32;;;;;;;;;1.00;1.00;;;;;14.74;59.87;102189.94;5068598;28;45525;-58
2022/10/06 05:16:57;;;;;;;;;2.67;2.00;;;;;14.74;59.17;102197.03;5062350;28;46151;-58
2022/10/06 05:19:23;;;;;;;;;3.67;2.33;;;;;14.73;59.87;102204.09;5059141;28;45443;-58
2022/10/06 05:21:48;;;;;;;;;1.67;1.67;;;;;14.73;59.35;102195.28;5059344;28;45482;-58
2022/10/06 05:24:13;;;;;;;;;7.00;2.67;;;;;14.75;59.88;102199.63;5059118;28;56385;-57
2022/10/06 05:26:38;;;;;;;;;4.33;2.00;;;;;14.73;60.13;102201.44;5044266;28;52235;-58
2022/10/06 05:29:04;;;;;;;;;3.67;3.00;;;;;14.65;59.71;102202.56;5043278;28;45532;-57
2022/10/06 05:31:31;;;;;;;;;1.00;1.00;;;;;14.65;59.61;102208.75;5074056;28;45500;-57
2022/10/06 05:33:57;;;;;;;;;3.00;3.00;;;;;14.71;59.61;102211.22;5077403;28;45468;-57
2022/10/06 05:36:27;;;;;;;;;5.00;3.00;;;;;14.75;59.95;102218.19;5078850;28;45541;-58
2022/10/06 05:38:52;;;;;;;;;2.33;2.33;;;;;14.76;59.66;102219.91;5078993;28;45320;-58
2022/10/06 05:41:23;;;;;;;;;3.00;3.00;;;;;14.73;60.09;102216.47;5052971;28;45473;-56
2022/10/06 05:43:49;;;;;;;;;3.00;3.00;;;;;14.73;59.48;102222.66;5056803;28;45815;-61
2022/10/06 05:46:19;;;;;;;;;4.33;3.33;;;;;14.77;59.88;102226.06;5057402;28;45467;-59
2022/10/06 05:48:55;;;;;;;;;5.00;3.67;;;;;14.67;59.59;102227.22;5052768;28;45482;-58
2022/10/06 05:51:23;;;;;;;;;3.00;3.00;;;;;14.71;59.01;102240.34;5061692;28;45387;-58
2022/10/06 05:53:49;;;;;;;;;3.00;2.00;;;;;14.69;59.58;102233.34;5049631;28;45468;-58
2022/10/06 05:56:18;;;;;;;;;5.00;3.00;;;;;14.70;59.48;102233.31;5058473;28;46116;-58
2022/10/06 05:58:46;;;;;;;;;6.33;4.00;;;;;14.72;59.49;102238.56;5052641;28;45447;-59
2022/10/06 06:01:15;;;;;;;;;3.00;3.00;;;;;14.68;60.17;102237.78;5054865;28;45403;-58
2022/10/06 06:03:45;;;;;;;;;3.33;3.00;;;;;14.67;59.73;102238.69;5042626;28;45646;-59
2022/10/06 06:06:15;;;;;;;;;4.00;4.00;;;;;14.59;59.31;102232.75;5049694;28;46317;-59
2022/10/06 06:08:41;;;;;;;;;4.00;3.00;;;;;14.56;59.83;102238.09;5060205;28;45359;-59
2022/10/06 06:11:07;;;;;;;;;5.67;4.00;;;;;14.60;60.43;102241.53;5055672;28;45498;-59
2022/10/06 06:13:33;;;;;;;;;7.00;4.00;;;;;14.60;59.91;102238.91;5051185;28;45588;-59
2022/10/06 06:16:00;;;;;;;;;5.33;4.67;;;;;14.55;59.72;102241.66;5052009;28;45455;-58
2022/10/06 06:18:26;;;;;;;;;4.00;3.67;;;;;14.54;59.84;102245.22;5058943;28;45755;-57
2022/10/06 06:20:59;;;;;;;;;7.67;4.33;;;;;14.54;59.50;102246.09;5049207;28;45576;-56
2022/10/06 06:23:30;;;;;;;;;3.33;2.33;;;;;14.51;60.71;102250.56;5057064;28;45473;-57
2022/10/06 06:25:57;;;;;;;;;6.00;4.00;;;;;14.52;60.13;102252.28;5056582;28;45400;-57
2022/10/06 06:28:22;;;;;;;;;5.00;3.00;;;;;14.56;60.17;102259.28;5056602;28;45412;-56
2022/10/06 06:30:48;;;;;;;;;4.00;4.00;;;;;14.63;60.29;102260.00;5057489;28;45534;-57
2022/10/06 06:33:13;;;;;;;;;5.67;4.67;;;;;14.66;59.42;102267.84;5057607;28;45453;-57
2022/10/06 06:35:38;;;;;;;;;5.67;5.33;;;;;14.68;59.89;102260.75;5056368;28;65734;-57
2022/10/06 06:38:10;;;;;;;;;3.00;3.00;;;;;14.75;59.86;102265.00;5057341;28;45450;-57
2022/10/06 06:40:39;;;;;;;;;3.67;2.67;;;;;14.76;59.30;102267.59;5057488;28;45432;-56
2022/10/06 06:43:04;;;;;;;;;3.00;3.00;;;;;14.80;59.85;102271.00;5057206;28;45632;-53
2022/10/06 06:45:30;;;;;;;;;6.00;5.00;;;;;14.82;59.48;102271.84;5055332;28;56065;-57
2022/10/06 06:47:55;;;;;;;;;6.33;5.00;;;;;14.82;59.69;102271.84;5057255;28;45518;-56
2022/10/06 06:50:21;;;;;;;;;4.00;4.00;;;;;14.79;59.90;102280.75;5057370;28;45426;-56
2022/10/06 06:52:46;;;;;;;;;8.33;6.67;;;;;14.83;59.27;102285.94;5057107;28;45518;-56
2022/10/06 06:55:11;;;;;;;;;5.00;5.00;;;;;14.86;59.98;102291.19;5056963;28;49081;-55
2022/10/06 06:57:36;;;;;;;;;5.00;5.00;;;;;14.87;59.08;102287.63;5056893;28;45405;-57
2022/10/06 07:00:05;;;;;;;;;9.00;7.33;;;;;14.85;59.80;102295.59;5056903;28;45455;-56
2022/10/06 07:02:30;;;;;;;;;5.67;5.67;;;;;14.82;59.22;102295.69;5057178;28;45534;-56
2022/10/06 07:04:55;;;;;;;;;5.67;5.67;;;;;14.83;59.71;102301.84;5056286;28;56511;-57
2022/10/06 07:07:21;;;;;;;;;6.00;4.67;;;;;14.86;59.66;102301.78;5056901;28;45416;-56
2022/10/06 07:09:46;;;;;;;;;6.00;6.00;;;;;14.89;59.11;102307.00;5056945;28;45408;-56
2022/10/06 07:12:11;;;;;;;;;8.00;5.67;;;;;14.88;59.28;102306.13;5056833;28;45412;-57
2022/10/06 07:25:05;;;;;;;;;8.33;6.00;;;;;14.85;58.99;102307.97;5056403;28;55561;-56
2022/10/06 07:25:39;;;;;;;;;9.33;5.67;;;;;14.88;58.96;102329.09;5056988;28;45537;-56
2022/10/06 07:28:06;;;;;;;;;5.67;5.67;;;;;14.92;59.33;102328.13;5056440;28;45505;-57
2022/10/06 07:30:32;;;;;;;;;8.00;5.67;;;;;14.94;59.25;102321.88;5056761;28;45477;-56
2022/10/06 07:32:57;;;;;;;;;7.00;5.00;;;;;14.93;58.68;102325.41;5055520;28;45498;-57
2022/10/06 07:35:23;;;;;;;;;5.00;4.00;;;;;14.90;59.41;102325.50;5056466;28;46001;-56
2022/10/06 07:37:52;;;;;;;;;5.33;3.67;;;;;14.95;58.11;102341.28;5056448;28;45390;-56
2022/10/06 07:40:17;;;;;;;;;5.33;3.67;;;;;14.91;59.22;102344.91;5056575;28;45480;-55
2022/10/06 07:42:50;;;;;;;;;5.33;5.00;;;;;14.87;58.71;102336.19;5056485;28;45431;-57
2022/10/06 07:45:37;;;;;;;;;7.00;5.00;;;;;14.86;58.82;102345.03;5048845;28;45909;-56
2022/10/06 07:48:09;;;;;;;;;5.00;3.00;;;;;14.95;58.20;102344.78;5056128;28;45542;-50
2022/10/06 07:50:37;;;;;;;;;5.00;4.00;;;;;15.01;59.01;102352.56;5055990;28;45386;-55
2022/10/06 07:53:07;;;;;;;;;3.67;2.67;;;;;15.01;58.42;102341.13;5055856;28;45317;-55
2022/10/06 07:55:34;;;;;;;;;6.33;4.33;;;;;15.06;58.70;102357.78;5055694;28;46476;-54
2022/10/06 07:57:59;;;;;;;;;5.00;3.67;;;;;15.15;58.80;102359.31;5037778;28;45459;-56
2022/10/06 08:00:25;;;;;;;;;3.00;3.00;;;;;15.19;57.97;102361.84;5056328;28;45407;-54
2022/10/06 08:02:53;;;;;;;;;3.00;3.00;;;;;15.19;58.36;102367.13;5056081;28;45395;-56
2022/10/06 08:05:19;;;;;;;;;3.67;3.67;;;;;15.20;58.08;102358.25;5055920;28;46025;-54
2022/10/06 08:07:45;;;;;;;;;3.33;3.33;;;;;15.21;58.34;102369.75;5037563;28;45445;-55
2022/10/06 08:10:10;;;;;;;;;4.33;3.00;;;;;15.18;58.41;102357.47;5055996;28;45427;-54
2022/10/06 08:12:36;;;;;;;;;4.67;3.00;;;;;15.27;58.61;102366.06;5037923;28;45481;-57
2022/10/06 08:15:10;;;;;;;;;7.00;5.67;;;;;15.34;58.49;102370.28;5055953;28;45424;-56
2022/10/06 08:17:36;;;;;;;;;4.00;4.00;;;;;15.42;57.96;102378.91;5055746;28;45454;-56
2022/10/06 08:20:05;;;;;;;;;6.33;3.00;;;;;15.45;58.14;102368.25;5055579;28;45513;-54
2022/10/06 08:22:32;;;;;;;;;9.00;7.00;;;;;15.50;58.40;102381.34;5055558;28;45513;-57
2022/10/06 08:24:58;;;;;;;;;5.33;4.67;;;;;15.53;58.27;102374.19;5056141;28;46241;-57
2022/10/06 08:27:25;;;;;;;;;19.67;19.00;;;;;15.56;57.76;102370.59;5055743;28;45444;-57
2022/10/06 08:29:51;;;;;;;;;5.00;4.33;;;;;15.62;57.35;102376.59;5055665;28;45435;-56
2022/10/06 08:32:19;;;;;;;;;3.33;3.33;;;;;15.68;57.64;102378.19;5055483;28;45445;-57
2022/10/06 08:34:44;;;;;;;;;4.67;4.67;;;;;15.72;57.15;102384.34;5055185;28;45367;-57
2022/10/06 08:37:10;;;;;;;;;5.67;4.00;;;;;15.74;57.54;102386.00;5055275;28;45443;-55
2022/10/06 08:39:35;;;;;;;;;6.00;4.00;;;;;15.76;57.56;102388.63;5055650;28;45407;-57
2022/10/06 08:42:00;;;;;;;;;6.00;5.33;;;;;15.77;57.71;102390.34;5055369;28;45795;-57
2022/10/06 08:44:40;;;;;;;;;7.00;7.00;;;;;15.82;57.75;102385.78;5054601;28;45373;-56
2022/10/06 08:47:13;;;;;;;;;8.00;6.33;;;;;15.86;57.11;102388.31;5055345;28;45485;-57
2022/10/06 08:49:44;;;;;;;;;6.33;5.00;;;;;15.93;57.69;102399.59;5037252;28;45540;-57
2022/10/06 08:52:28;;;;;;;;;5.00;4.00;;;;;15.95;57.47;102400.44;5055339;28;45426;-55
2022/10/06 08:55:23;;;;;;;;;5.00;3.33;;;;;16.00;57.15;102395.00;5055051;28;46099;-56
2022/10/06 08:58:36;;;;;;;;;7.67;5.33;;;;;15.96;56.70;102403.97;5055178;28;45530;-56
2022/10/06 09:01:15;;;;;;;;;4.33;4.00;;;;;15.98;55.91;102403.00;4956950;28;45511;-55
2022/10/06 09:03:47;;;;;;;;;3.00;3.00;;;;;16.01;56.95;102399.38;4973354;28;45398;-56
2022/10/06 09:06:39;;;;;;;;;4.00;4.00;;;;;16.07;56.47;102400.09;5013679;28;46970;-56
2022/10/06 09:09:20;;;;;;;;;4.00;3.00;;;;;16.11;56.40;102407.03;5055012;28;45437;-56
2022/10/06 09:11:45;;;;;;;;;4.00;4.00;;;;;16.18;56.74;102409.53;5054945;28;45375;-57
2022/10/06 09:14:20;;;;;;;;;4.00;4.00;;;;;16.22;55.99;102405.84;5055046;28;45343;-56
2022/10/06 09:16:53;;;;;;;;;6.33;4.67;;;;;16.26;55.96;102411.03;5054422;28;46264;-55
2022/10/06 09:19:26;;;;;;;;;3.00;2.00;;;;;16.32;56.05;102407.31;5054797;28;45454;-56
2022/10/06 09:21:53;;;;;;;;;5.33;4.67;;;;;16.32;55.49;102405.53;5054751;28;45420;-56
2022/10/06 09:24:38;;;;;;;;;3.67;3.67;;;;;16.35;56.30;102407.22;5036954;28;45561;-54
2022/10/06 09:27:27;;;;;;;;;3.00;2.00;;;;;16.31;54.66;102408.25;5054940;28;45480;-57
2022/10/06 09:29:53;;;;;;;;;5.00;3.33;;;;;16.32;56.31;102407.31;5054989;28;45398;-56
2022/10/06 09:32:21;;;;;;;;;4.00;4.00;;;;;16.38;55.48;102409.78;5054948;28;45739;-57
2022/10/06 09:34:55;;;;;;;;;5.00;2.00;;;;;16.39;55.29;102418.59;5054605;28;45579;-55
2022/10/06 09:37:22;;;;;;;;;5.00;3.00;;;;;16.43;55.68;102420.28;5054564;28;46199;-56
2022/10/06 09:39:50;;;;;;;;;4.67;3.67;;;;;16.46;55.60;102413.06;5036225;28;45461;-58
2022/10/06 09:42:20;;;;;;;;;2.00;2.00;;;;;16.61;55.81;102414.38;5056533;28;45497;-59
2022/10/06 09:44:59;;;;;;;;;3.67;3.67;;;;;16.74;55.34;102410.44;5062141;28;45579;-54
2022/10/06 09:47:28;;;;;;;;;3.33;3.00;;;;;16.83;54.70;102409.28;5050182;28;45478;-59
2022/10/06 09:50:23;;;;;;;;;5.00;3.00;;;;;16.93;54.98;102408.06;5053824;28;45494;-61
2022/10/06 09:53:02;;;;;;;;;4.00;3.00;;;;;16.94;54.90;102406.28;5059840;28;45492;-55
2022/10/06 09:55:36;;;;;;;;;4.00;3.00;;;;;16.97;55.01;102403.50;5053815;28;45418;-56
2022/10/06 09:58:15;;;;;;;;;4.33;2.33;;;;;16.96;54.22;102412.41;5055928;28;46300;-55
2022/10/06 10:00:47;;;;;;;;;6.00;3.67;;;;;16.92;54.75;102410.75;5053702;28;45410;-57
2022/10/06 10:03:12;;;;;;;;;3.67;3.67;;;;;16.91;54.37;102411.69;5058165;28;45525;-56
2022/10/06 10:05:45;;;;;;;;;11.00;4.00;;;;;16.95;54.33;102408.00;5057719;28;46966;-56
2022/10/06 10:08:20;;;;;;;;;6.00;6.00;;;;;17.04;54.20;102415.69;5050205;28;46209;-57
2022/10/06 10:10:46;;;;;;;;;7.67;6.00;;;;;17.11;54.46;102413.69;5058029;28;45423;-56
2022/10/06 10:13:24;;;;;;;;;9.67;7.67;;;;;17.15;54.59;102410.00;5070403;28;45384;-56
2022/10/06 10:15:59;;;;;;;;;5.00;5.00;;;;;17.18;53.67;102412.56;5078622;28;45398;-57
2022/10/06 10:18:29;;;;;;;;;5.00;5.00;;;;;17.19;53.75;102406.31;5057631;28;45399;-57
2022/10/06 10:21:05;;;;;;;;;16.33;14.00;;;;;17.19;53.85;102399.22;5056642;28;45497;-58
2022/10/06 10:23:38;;;;;;;;;13.67;12.67;;;;;17.22;54.28;102403.53;5052674;28;45521;-56
2022/10/06 10:26:44;;;;;;;;;22.33;20.33;;;;;17.22;53.36;102408.84;5058356;28;45371;-57
2022/10/06 10:29:30;;;;;;;;;18.67;18.67;;;;;17.27;53.27;102408.72;5036835;28;46207;-57
2022/10/06 10:32:03;;;;;;;;;7.00;6.00;;;;;17.21;52.95;102401.81;5049122;28;45511;-57
2022/10/06 10:34:52;;;;;;;;;4.00;4.00;;;;;17.24;52.93;102401.72;5076695;28;45426;-57
2022/10/06 10:37:30;;;;;;;;;6.00;3.33;;;;;17.27;53.08;102398.06;5078165;28;45544;-54
2022/10/06 10:40:03;;;;;;;;;2.00;2.00;;;;;17.32;52.72;102398.78;5077787;28;45405;-55
2022/10/06 10:42:54;;;;;;;;;4.67;2.00;;;;;17.30;52.85;102390.88;5064536;28;45406;-57
2022/10/06 10:45:49;;;;;;;;;5.00;4.00;;;;;17.30;52.74;102401.50;5027917;28;45518;-58
2022/10/06 10:48:26;;;;;;;;;4.00;3.00;;;;;17.36;52.99;102392.44;5051080;28;45417;-62
2022/10/06 10:51:09;;;;;;;;;7.67;6.67;;;;;17.38;52.62;102394.13;5047206;28;45557;-62
2022/10/06 10:53:47;;;;;;;;;7.00;6.00;;;;;17.44;52.53;102390.38;5026449;28;45442;-61
2022/10/06 10:56:15;;;;;;;;;4.00;4.00;;;;;17.52;52.27;102387.47;5049362;28;45384;-63
2022/10/06 10:58:45;;;;;;;;;9.00;5.50;;;;;17.58;52.12;102396.06;5053001;28;45463;-62
2022/10/06 11:01:16;;;;;;;;;4.67;4.67;;;;;17.63;51.64;102394.13;5068799;28;46380;-60
2022/10/06 11:03:42;;;;;;;;;3.67;2.67;;;;;17.67;51.26;102389.53;5060264;28;45610;-58
2022/10/06 11:06:45;;;;;;;;;2.67;1.33;;;;;17.69;50.92;102382.38;5056479;28;45475;-58
2022/10/06 11:09:26;;;;;;;;;3.33;3.33;;;;;17.75;51.35;102375.97;5037771;28;45570;-59
2022/10/06 11:12:09;;;;;;;;;6.67;3.00;;;;;17.79;51.20;102378.50;5067280;28;46071;-58
2022/10/06 11:14:40;;;;;;;;;10.67;10.67;;;;;17.81;50.30;102379.31;5063374;28;45520;-59
2022/10/06 11:17:21;;;;;;;;;21.67;21.67;;;;;17.85;51.15;102382.72;5063250;28;45746;-59
2022/10/06 11:20:09;;;;;;;;;4.33;3.00;;;;;17.85;49.75;102367.59;5047445;28;45473;-59
2022/10/06 11:22:41;;;;;;;;;11.00;11.00;;;;;17.90;49.37;102371.91;5059849;28;45624;-59
2022/10/06 11:25:28;;;;;;;;;6.67;6.67;;;;;17.93;48.72;102379.78;5056946;28;45440;-57
2022/10/06 11:28:08;;;;;;;;;3.00;3.00;;;;;17.95;49.01;102377.94;5056944;28;45493;-58
2022/10/06 11:30:47;;;;;;;;;4.33;2.00;;;;;17.92;48.19;102376.25;5056854;28;45678;-58
2022/10/06 11:33:24;;;;;;;;;6.00;5.00;;;;;17.93;48.14;102369.13;5063988;28;46480;-58
2022/10/06 11:35:50;;;;;;;;;3.67;3.67;;;;;18.02;47.52;102374.94;5077053;28;45477;-57
2022/10/06 11:38:51;;;;;;;;;3.67;3.67;;;;;18.10;48.37;102369.34;5063753;28;45478;-57
2022/10/06 11:41:26;;;;;;;;;3.67;3.67;;;;;18.16;47.39;102370.88;5047115;28;45382;-60
2022/10/06 11:44:21;;;;;;;;;3.67;1.00;;;;;18.21;48.27;102367.13;5071863;28;46389;-58
2022/10/06 11:46:57;;;;;;;;;0.67;0.67;;;;;18.21;47.23;102364.44;5066062;28;45544;-63